Bremen, Indiana
Current Conditions -  °F | °C
As of 1:53 AM on Saturday 29 Nov 2014 (Local Time) from KGSH Reporting Station
Few Clouds Few Clouds  
Wind Chill: 24°   Ceiling: Unl
Heat Index: 33°   Visibility: 10mi
Dew Point: 24°   Wind: 12mph
Humidity: 70%   Direction: 170°S
Pressure: 29.95"   Gusts: NA
Location:  41.45°N, 86.15°W
Report Text: KGSH 290653Z AUTO 17010KT 10SM FEW120 01/M04 A2995 RMK AO2 SLP151 T00061044
Loading
Personal Weather Stations






























Interactive Weather Map New forecast layout! Learn more

10-Day Weather Forecast

Advertisements
Track Severe Weather on mobile